Airfield :
LOGIN :

Register | Disclaimer

   EN    FR    IT 

 










Legend :    VFR   Marginal VFR   IFR   Intensive IFR   Very Intensive IFR
Visi :
Ceiling :
>= 8 km
>= 3000ft
5 to 8 km
1000 to 3000 ft
1500m to 5 km
500 to 1000 ft
800 to 1500m
200 to 500 ft
< 800m
< 200 ft
Symbols :   Thunderstorms  Fog  Heavy snow  Heavy precipitations  Wind > 20 kt
SIGMETs :     Misc.  Thunderstorms  Icing  Turbulence  Mountain Waves  Volcanic Ashes







- Airport Elevation : 147 ft
- IATA code : DUS


EDDL - Düsseldorf Int.

CURRENT METAR :
  • 210250Z 16011KT 9999 FEW045 BKN080 13/07 Q1012 NOSIG

EXPIRED METARs :
  • 210220Z 16011KT 9999 BKN045 12/07 Q1013 NOSIG
  • 210150Z 16010KT 9999 BKN045 12/07 Q1013 NOSIG
  • 210120Z 17010KT 9999 FEW040 BKN150 12/07 Q1013 NOSIG
  • 210050Z 16009KT CAVOK 12/07 Q1013 NOSIG
  • 210020Z 17010KT CAVOK 12/07 Q1013 NOSIG

TAF TAF EDDL
Valid from the 21 at 00:00 until the 22 at 06:00 UTC


202300Z 2100/2206 17012KT 9999 FEW035
TEMPO 2112/2117 20015G25KT
TEMPO 2202/2206 18015G25KT
No reported NOTAMs for that airfield.



MET'MAP, your aeronautical weather chart ! - Copyright ORBIFLY December 2007 - Disclaimer

ORBIFLY MET'MAP TEAM :

Programming & Development : Alexandra Zaïnal
Concept & Development : Baudouin d'Aumeries
Co-Development & Prog : Marc-Olivier Méhu
Technical & hardware support : Manuel Goepfert

Contact : metmap@orbifly.com




SOURCES & CREDITS :

   NOAA